sensor_id;sensor_type;location;lat;lon;timestamp;P1;durP1;ratioP1;P2;durP2;ratioP2
18574;SDS011;9417;16.484;102.872;2023-03-01T00:00:47;73.60;;;48.40;;
18574;SDS011;9417;16.484;102.872;2023-03-01T00:02:54;77.32;;;51.38;;
18574;SDS011;9417;16.484;102.872;2023-03-01T00:05:01;71.65;;;49.35;;
18574;SDS011;9417;16.484;102.872;2023-03-01T00:07:09;70.68;;;49.03;;
18574;SDS011;9417;16.484;102.872;2023-03-01T00:09:17;82.72;;;51.17;;
18574;SDS011;9417;16.484;102.872;2023-03-01T00:11:24;76.72;;;48.85;;
18574;SDS011;9417;16.484;102.872;2023-03-01T00:13:32;67.82;;;47.17;;
18574;SDS011;9417;16.484;102.872;2023-03-01T00:15:40;71.95;;;47.97;;
18574;SDS011;9417;16.484;102.872;2023-03-01T00:17:47;76.65;;;51.03;;
18574;SDS011;9417;16.484;102.872;2023-03-01T00:19:54;77.40;;;53.38;;
18574;SDS011;9417;16.484;102.872;2023-03-01T00:22:01;83.65;;;52.97;;
18574;SDS011;9417;16.484;102.872;2023-03-01T00:24:10;81.13;;;55.85;;
18574;SDS011;9417;16.484;102.872;2023-03-01T00:26:18;84.55;;;56.65;;
18574;SDS011;9417;16.484;102.872;2023-03-01T00:28:26;82.45;;;54.97;;
18574;SDS011;9417;16.484;102.872;2023-03-01T00:30:33;89.65;;;58.03;;
18574;SDS011;9417;16.484;102.872;2023-03-01T00:32:40;85.35;;;56.25;;
18574;SDS011;9417;16.484;102.872;2023-03-01T00:34:47;90.88;;;58.22;;
18574;SDS011;9417;16.484;102.872;2023-03-01T00:36:59;82.80;;;56.90;;
18574;SDS011;9417;16.484;102.872;2023-03-01T00:39:11;84.43;;;56.90;;
18574;SDS011;9417;16.484;102.872;2023-03-01T00:41:19;93.18;;;59.08;;
18574;SDS011;9417;16.484;102.872;2023-03-01T00:43:28;87.32;;;59.10;;
18574;SDS011;9417;16.484;102.872;2023-03-01T00:45:39;86.47;;;57.17;;
18574;SDS011;9417;16.484;102.872;2023-03-01T00:47:47;88.22;;;58.72;;
18574;SDS011;9417;16.484;102.872;2023-03-01T00:49:54;84.32;;;54.55;;
18574;SDS011;9417;16.484;102.872;2023-03-01T00:52:01;87.82;;;56.17;;
18574;SDS011;9417;16.484;102.872;2023-03-01T00:54:08;88.22;;;57.88;;
18574;SDS011;9417;16.484;102.872;2023-03-01T00:56:17;88.45;;;59.58;;
18574;SDS011;9417;16.484;102.872;2023-03-01T00:58:25;92.32;;;60.08;;
18574;SDS011;9417;16.484;102.872;2023-03-01T01:00:32;87.60;;;60.80;;
18574;SDS011;9417;16.484;102.872;2023-03-01T01:02:39;92.40;;;60.88;;
18574;SDS011;9417;16.484;102.872;2023-03-01T01:04:46;96.40;;;61.33;;
18574;SDS011;9417;16.484;102.872;2023-03-01T01:06:54;99.82;;;61.83;;
18574;SDS011;9417;16.484;102.872;2023-03-01T01:09:01;95.70;;;62.97;;
18574;SDS011;9417;16.484;102.872;2023-03-01T01:11:11;94.32;;;62.30;;
18574;SDS011;9417;16.484;102.872;2023-03-01T01:13:18;96.68;;;62.47;;
18574;SDS011;9417;16.484;102.872;2023-03-01T01:15:25;97.18;;;61.83;;
18574;SDS011;9417;16.484;102.872;2023-03-01T01:17:32;90.82;;;60.08;;
18574;SDS011;9417;16.484;102.872;2023-03-01T01:19:39;94.32;;;60.88;;
18574;SDS011;9417;16.484;102.872;2023-03-01T01:21:47;100.60;;;66.30;;
18574;SDS011;9417;16.484;102.872;2023-03-01T01:23:53;102.80;;;66.75;;
18574;SDS011;9417;16.484;102.872;2023-03-01T01:26:04;104.30;;;69.90;;
18574;SDS011;9417;16.484;102.872;2023-03-01T01:28:14;111.70;;;71.60;;
18574;SDS011;9417;16.484;102.872;2023-03-01T01:30:21;107.25;;;72.10;;
18574;SDS011;9417;16.484;102.872;2023-03-01T01:32:28;104.13;;;69.95;;
18574;SDS011;9417;16.484;102.872;2023-03-01T01:34:35;112.28;;;69.95;;
18574;SDS011;9417;16.484;102.872;2023-03-01T01:36:42;105.72;;;70.18;;
18574;SDS011;9417;16.484;102.872;2023-03-01T01:38:49;111.80;;;71.90;;
18574;SDS011;9417;16.484;102.872;2023-03-01T01:40:56;110.78;;;71.63;;
18574;SDS011;9417;16.484;102.872;2023-03-01T01:43:04;107.15;;;74.18;;
18574;SDS011;9417;16.484;102.872;2023-03-01T01:45:32;95.63;;;66.22;;
18574;SDS011;9417;16.484;102.872;2023-03-01T01:47:39;94.88;;;65.93;;
18574;SDS011;9417;16.484;102.872;2023-03-01T01:49:47;88.18;;;63.38;;
18574;SDS011;9417;16.484;102.872;2023-03-01T01:51:58;89.05;;;63.45;;
18574;SDS011;9417;16.484;102.872;2023-03-01T01:54:14;90.82;;;64.18;;
18574;SDS011;9417;16.484;102.872;2023-03-01T01:56:25;89.75;;;63.00;;
18574;SDS011;9417;16.484;102.872;2023-03-01T01:58:34;93.18;;;65.97;;
18574;SDS011;9417;16.484;102.872;2023-03-01T02:00:44;95.25;;;66.32;;
18574;SDS011;9417;16.484;102.872;2023-03-01T02:02:54;90.97;;;66.53;;
18574;SDS011;9417;16.484;102.872;2023-03-01T02:05:05;91.57;;;67.72;;
18574;SDS011;9417;16.484;102.872;2023-03-01T02:07:17;94.13;;;66.65;;
18574;SDS011;9417;16.484;102.872;2023-03-01T02:09:26;89.28;;;65.63;;
18574;SDS011;9417;16.484;102.872;2023-03-01T02:11:33;95.50;;;68.50;;
18574;SDS011;9417;16.484;102.872;2023-03-01T02:13:42;98.82;;;69.32;;
18574;SDS011;9417;16.484;102.872;2023-03-01T02:15:52;94.22;;;66.65;;
18574;SDS011;9417;16.484;102.872;2023-03-01T02:17:58;91.18;;;67.63;;
18574;SDS011;9417;16.484;102.872;2023-03-01T02:20:08;90.88;;;65.53;;
18574;SDS011;9417;16.484;102.872;2023-03-01T02:22:25;91.30;;;65.53;;
18574;SDS011;9417;16.484;102.872;2023-03-01T02:24:37;86.82;;;66.05;;
18574;SDS011;9417;16.484;102.872;2023-03-01T02:26:55;90.65;;;66.75;;
18574;SDS011;9417;16.484;102.872;2023-03-01T02:29:05;93.22;;;66.57;;
18574;SDS011;9417;16.484;102.872;2023-03-01T02:31:14;87.30;;;64.72;;
18574;SDS011;9417;16.484;102.872;2023-03-01T02:33:39;79.97;;;61.03;;
18574;SDS011;9417;16.484;102.872;2023-03-01T02:35:48;86.45;;;64.32;;
18574;SDS011;9417;16.484;102.872;2023-03-01T02:37:55;85.22;;;62.90;;
18574;SDS011;9417;16.484;102.872;2023-03-01T02:40:05;91.68;;;64.70;;
18574;SDS011;9417;16.484;102.872;2023-03-01T02:42:16;87.43;;;64.13;;
18574;SDS011;9417;16.484;102.872;2023-03-01T02:44:30;79.32;;;58.40;;
18574;SDS011;9417;16.484;102.872;2023-03-01T02:46:42;77.70;;;61.38;;
18574;SDS011;9417;16.484;102.872;2023-03-01T02:48:50;79.65;;;57.80;;
18574;SDS011;9417;16.484;102.872;2023-03-01T02:51:02;73.50;;;55.67;;
18574;SDS011;9417;16.484;102.872;2023-03-01T02:53:21;73.38;;;55.13;;
18574;SDS011;9417;16.484;102.872;2023-03-01T02:55:31;74.05;;;54.33;;
18574;SDS011;9417;16.484;102.872;2023-03-01T02:57:39;73.45;;;54.72;;
18574;SDS011;9417;16.484;102.872;2023-03-01T02:59:49;66.45;;;52.53;;
18574;SDS011;9417;16.484;102.872;2023-03-01T03:02:00;69.90;;;53.95;;
18574;SDS011;9417;16.484;102.872;2023-03-01T03:04:07;61.42;;;46.17;;
18574;SDS011;9417;16.484;102.872;2023-03-01T03:06:16;61.72;;;48.47;;
18574;SDS011;9417;16.484;102.872;2023-03-01T03:08:23;64.38;;;49.00;;
18574;SDS011;9417;16.484;102.872;2023-03-01T03:10:31;62.15;;;47.15;;
18574;SDS011;9417;16.484;102.872;2023-03-01T03:12:40;63.97;;;47.78;;
18574;SDS011;9417;16.484;102.872;2023-03-01T03:14:47;63.33;;;48.20;;
18574;SDS011;9417;16.484;102.872;2023-03-01T03:16:56;63.00;;;48.50;;
18574;SDS011;9417;16.484;102.872;2023-03-01T03:19:03;68.95;;;49.72;;
18574;SDS011;9417;16.484;102.872;2023-03-01T03:21:10;61.70;;;48.47;;
18574;SDS011;9417;16.484;102.872;2023-03-01T03:23:18;64.50;;;49.95;;
18574;SDS011;9417;16.484;102.872;2023-03-01T03:25:26;60.72;;;47.10;;
18574;SDS011;9417;16.484;102.872;2023-03-01T03:27:34;67.88;;;50.10;;
18574;SDS011;9417;16.484;102.872;2023-03-01T03:29:41;66.13;;;48.72;;
18574;SDS011;9417;16.484;102.872;2023-03-01T03:31:50;62.65;;;50.38;;
18574;SDS011;9417;16.484;102.872;2023-03-01T03:33:57;68.13;;;50.85;;
18574;SDS011;9417;16.484;102.872;2023-03-01T03:36:04;71.35;;;51.72;;
18574;SDS011;9417;16.484;102.872;2023-03-01T03:38:21;65.43;;;49.53;;
18574;SDS011;9417;16.484;102.872;2023-03-01T03:40:28;63.42;;;48.63;;
18574;SDS011;9417;16.484;102.872;2023-03-01T03:42:36;69.95;;;50.33;;
18574;SDS011;9417;16.484;102.872;2023-03-01T03:44:43;65.53;;;47.15;;
18574;SDS011;9417;16.484;102.872;2023-03-01T03:46:52;61.45;;;45.90;;
18574;SDS011;9417;16.484;102.872;2023-03-01T03:48:59;64.53;;;48.50;;
18574;SDS011;9417;16.484;102.872;2023-03-01T03:51:06;58.45;;;45.17;;
18574;SDS011;9417;16.484;102.872;2023-03-01T03:53:15;61.42;;;47.08;;
18574;SDS011;9417;16.484;102.872;2023-03-01T03:55:22;59.13;;;44.67;;
18574;SDS011;9417;16.484;102.872;2023-03-01T03:57:34;60.33;;;44.20;;
18574;SDS011;9417;16.484;102.872;2023-03-01T03:59:40;58.17;;;44.60;;
18574;SDS011;9417;16.484;102.872;2023-03-01T04:01:47;59.47;;;46.03;;
18574;SDS011;9417;16.484;102.872;2023-03-01T04:03:56;59.33;;;46.20;;
18574;SDS011;9417;16.484;102.872;2023-03-01T04:06:07;44.80;;;36.55;;
18574;SDS011;9417;16.484;102.872;2023-03-01T04:08:14;46.58;;;37.15;;
18574;SDS011;9417;16.484;102.872;2023-03-01T04:10:23;44.25;;;35.55;;
18574;SDS011;9417;16.484;102.872;2023-03-01T04:12:30;42.88;;;31.88;;
18574;SDS011;9417;16.484;102.872;2023-03-01T04:14:37;40.42;;;31.52;;
18574;SDS011;9417;16.484;102.872;2023-03-01T04:16:44;39.92;;;30.85;;
18574;SDS011;9417;16.484;102.872;2023-03-01T04:18:51;42.00;;;31.35;;
18574;SDS011;9417;16.484;102.872;2023-03-01T04:21:00;37.47;;;29.40;;
18574;SDS011;9417;16.484;102.872;2023-03-01T04:23:10;38.70;;;30.90;;
18574;SDS011;9417;16.484;102.872;2023-03-01T04:25:19;40.05;;;31.80;;
18574;SDS011;9417;16.484;102.872;2023-03-01T04:27:26;39.55;;;31.80;;
18574;SDS011;9417;16.484;102.872;2023-03-01T04:29:34;38.28;;;29.90;;
18574;SDS011;9417;16.484;102.872;2023-03-01T04:31:40;37.58;;;29.55;;
18574;SDS011;9417;16.484;102.872;2023-03-01T04:33:48;35.15;;;28.92;;
18574;SDS011;9417;16.484;102.872;2023-03-01T04:35:56;35.25;;;27.88;;
18574;SDS011;9417;16.484;102.872;2023-03-01T04:38:05;38.47;;;28.13;;
18574;SDS011;9417;16.484;102.872;2023-03-01T04:40:12;36.47;;;27.63;;
18574;SDS011;9417;16.484;102.872;2023-03-01T04:42:20;32.00;;;25.70;;
18574;SDS011;9417;16.484;102.872;2023-03-01T04:44:27;30.85;;;23.63;;
18574;SDS011;9417;16.484;102.872;2023-03-01T04:46:34;33.53;;;25.42;;
18574;SDS011;9417;16.484;102.872;2023-03-01T04:48:42;29.30;;;22.15;;
18574;SDS011;9417;16.484;102.872;2023-03-01T04:50:50;26.33;;;21.02;;
18574;SDS011;9417;16.484;102.872;2023-03-01T04:52:57;25.83;;;20.98;;
18574;SDS011;9417;16.484;102.872;2023-03-01T04:55:07;29.90;;;23.52;;
18574;SDS011;9417;16.484;102.872;2023-03-01T04:57:15;28.80;;;21.95;;
18574;SDS011;9417;16.484;102.872;2023-03-01T04:59:22;25.83;;;20.45;;
18574;SDS011;9417;16.484;102.872;2023-03-01T05:01:29;28.83;;;20.80;;
18574;SDS011;9417;16.484;102.872;2023-03-01T05:03:36;22.55;;;18.83;;
18574;SDS011;9417;16.484;102.872;2023-03-01T05:05:45;27.92;;;19.80;;
18574;SDS011;9417;16.484;102.872;2023-03-01T05:07:54;26.42;;;21.00;;
18574;SDS011;9417;16.484;102.872;2023-03-01T05:10:02;24.38;;;20.05;;
18574;SDS011;9417;16.484;102.872;2023-03-01T05:12:11;24.55;;;20.17;;
18574;SDS011;9417;16.484;102.872;2023-03-01T05:14:18;22.30;;;17.42;;
18574;SDS011;9417;16.484;102.872;2023-03-01T05:16:25;29.25;;;19.85;;
18574;SDS011;9417;16.484;102.872;2023-03-01T05:18:37;22.73;;;18.55;;
18574;SDS011;9417;16.484;102.872;2023-03-01T05:20:45;23.25;;;17.63;;
18574;SDS011;9417;16.484;102.872;2023-03-01T05:22:51;23.13;;;17.92;;
18574;SDS011;9417;16.484;102.872;2023-03-01T05:25:00;20.67;;;17.35;;
18574;SDS011;9417;16.484;102.872;2023-03-01T05:27:07;24.05;;;17.67;;
18574;SDS011;9417;16.484;102.872;2023-03-01T05:29:18;21.50;;;16.77;;
18574;SDS011;9417;16.484;102.872;2023-03-01T05:33:34;21.05;;;17.27;;
18574;SDS011;9417;16.484;102.872;2023-03-01T05:35:42;20.88;;;17.00;;
18574;SDS011;9417;16.484;102.872;2023-03-01T05:37:50;23.15;;;17.40;;
18574;SDS011;9417;16.484;102.872;2023-03-01T05:39:57;22.02;;;17.70;;
18574;SDS011;9417;16.484;102.872;2023-03-01T05:42:04;23.33;;;17.33;;
18574;SDS011;9417;16.484;102.872;2023-03-01T05:44:12;22.10;;;16.45;;
18574;SDS011;9417;16.484;102.872;2023-03-01T05:46:21;21.02;;;17.13;;
18574;SDS011;9417;16.484;102.872;2023-03-01T05:48:28;21.75;;;15.70;;
18574;SDS011;9417;16.484;102.872;2023-03-01T05:50:36;21.20;;;16.20;;
18574;SDS011;9417;16.484;102.872;2023-03-01T05:52:45;19.08;;;15.35;;
18574;SDS011;9417;16.484;102.872;2023-03-01T05:54:53;19.98;;;16.27;;
18574;SDS011;9417;16.484;102.872;2023-03-01T05:57:00;21.13;;;16.80;;
18574;SDS011;9417;16.484;102.872;2023-03-01T05:59:07;20.08;;;15.60;;
18574;SDS011;9417;16.484;102.872;2023-03-01T06:01:14;18.52;;;15.93;;
18574;SDS011;9417;16.484;102.872;2023-03-01T06:03:22;19.17;;;15.05;;
18574;SDS011;9417;16.484;102.872;2023-03-01T06:05:30;18.73;;;15.43;;
18574;SDS011;9417;16.484;102.872;2023-03-01T06:07:38;20.10;;;15.30;;
18574;SDS011;9417;16.484;102.872;2023-03-01T06:09:45;19.98;;;15.30;;
18574;SDS011;9417;16.484;102.872;2023-03-01T06:11:52;18.98;;;15.73;;
18574;SDS011;9417;16.484;102.872;2023-03-01T06:13:59;20.48;;;15.98;;
18574;SDS011;9417;16.484;102.872;2023-03-01T06:16:06;19.00;;;16.02;;
18574;SDS011;9417;16.484;102.872;2023-03-01T06:18:14;27.92;;;16.42;;
18574;SDS011;9417;16.484;102.872;2023-03-01T06:20:24;20.60;;;15.10;;
18574;SDS011;9417;16.484;102.872;2023-03-01T06:22:31;17.10;;;14.98;;
18574;SDS011;9417;16.484;102.872;2023-03-01T06:24:38;22.40;;;14.88;;
18574;SDS011;9417;16.484;102.872;2023-03-01T06:26:45;17.55;;;14.98;;
18574;SDS011;9417;16.484;102.872;2023-03-01T06:28:52;18.63;;;15.20;;
18574;SDS011;9417;16.484;102.872;2023-03-01T06:30:59;16.83;;;14.60;;
18574;SDS011;9417;16.484;102.872;2023-03-01T06:33:05;16.02;;;14.32;;
18574;SDS011;9417;16.484;102.872;2023-03-01T06:35:13;19.85;;;14.18;;
18574;SDS011;9417;16.484;102.872;2023-03-01T06:37:23;17.80;;;14.48;;
18574;SDS011;9417;16.484;102.872;2023-03-01T06:39:30;17.98;;;15.07;;
18574;SDS011;9417;16.484;102.872;2023-03-01T06:41:38;17.02;;;14.13;;
18574;SDS011;9417;16.484;102.872;2023-03-01T06:43:45;17.60;;;14.57;;
18574;SDS011;9417;16.484;102.872;2023-03-01T06:45:52;23.55;;;14.65;;
18574;SDS011;9417;16.484;102.872;2023-03-01T06:48:02;18.13;;;14.40;;
18574;SDS011;9417;16.484;102.872;2023-03-01T06:50:11;17.27;;;14.48;;
18574;SDS011;9417;16.484;102.872;2023-03-01T06:52:18;21.23;;;14.95;;
18574;SDS011;9417;16.484;102.872;2023-03-01T06:54:27;19.33;;;14.55;;
18574;SDS011;9417;16.484;102.872;2023-03-01T06:56:34;16.30;;;13.88;;
18574;SDS011;9417;16.484;102.872;2023-03-01T06:58:40;17.95;;;13.70;;
18574;SDS011;9417;16.484;102.872;2023-03-01T07:00:47;17.25;;;14.00;;
18574;SDS011;9417;16.484;102.872;2023-03-01T07:02:54;18.65;;;12.90;;
18574;SDS011;9417;16.484;102.872;2023-03-01T07:05:04;16.52;;;14.20;;
18574;SDS011;9417;16.484;102.872;2023-03-01T07:07:12;19.63;;;14.05;;
18574;SDS011;9417;16.484;102.872;2023-03-01T07:09:18;18.25;;;14.50;;
18574;SDS011;9417;16.484;102.872;2023-03-01T07:11:27;17.85;;;14.07;;
18574;SDS011;9417;16.484;102.872;2023-03-01T07:13:34;20.33;;;14.30;;
18574;SDS011;9417;16.484;102.872;2023-03-01T07:15:41;17.42;;;13.93;;
18574;SDS011;9417;16.484;102.872;2023-03-01T07:17:48;24.35;;;14.30;;
18574;SDS011;9417;16.484;102.872;2023-03-01T07:19:56;18.63;;;13.98;;
18574;SDS011;9417;16.484;102.872;2023-03-01T07:22:03;17.83;;;13.43;;
18574;SDS011;9417;16.484;102.872;2023-03-01T07:24:11;19.20;;;13.88;;
18574;SDS011;9417;16.484;102.872;2023-03-01T07:26:18;15.70;;;13.52;;
18574;SDS011;9417;16.484;102.872;2023-03-01T07:28:29;16.40;;;13.77;;
18574;SDS011;9417;16.484;102.872;2023-03-01T07:30:39;17.10;;;13.57;;
18574;SDS011;9417;16.484;102.872;2023-03-01T07:32:46;17.85;;;13.60;;
18574;SDS011;9417;16.484;102.872;2023-03-01T07:34:55;20.13;;;13.75;;
18574;SDS011;9417;16.484;102.872;2023-03-01T07:37:02;15.57;;;12.77;;
18574;SDS011;9417;16.484;102.872;2023-03-01T07:39:09;16.70;;;13.48;;
18574;SDS011;9417;16.484;102.872;2023-03-01T07:41:16;16.55;;;13.30;;
18574;SDS011;9417;16.484;102.872;2023-03-01T07:43:23;16.23;;;13.18;;
18574;SDS011;9417;16.484;102.872;2023-03-01T07:45:33;16.73;;;12.90;;
18574;SDS011;9417;16.484;102.872;2023-03-01T07:47:40;16.40;;;12.52;;
18574;SDS011;9417;16.484;102.872;2023-03-01T07:49:47;15.85;;;13.15;;
18574;SDS011;9417;16.484;102.872;2023-03-01T07:51:54;17.73;;;13.27;;
18574;SDS011;9417;16.484;102.872;2023-03-01T07:54:01;17.83;;;12.77;;
18574;SDS011;9417;16.484;102.872;2023-03-01T07:56:09;17.38;;;12.65;;
18574;SDS011;9417;16.484;102.872;2023-03-01T07:58:17;18.77;;;12.43;;
18574;SDS011;9417;16.484;102.872;2023-03-01T08:00:24;15.45;;;12.52;;
18574;SDS011;9417;16.484;102.872;2023-03-01T08:02:33;18.80;;;13.18;;
18574;SDS011;9417;16.484;102.872;2023-03-01T08:04:39;16.30;;;12.77;;
18574;SDS011;9417;16.484;102.872;2023-03-01T08:06:46;15.07;;;13.05;;
18574;SDS011;9417;16.484;102.872;2023-03-01T08:08:53;15.90;;;12.77;;
18574;SDS011;9417;16.484;102.872;2023-03-01T08:11:02;15.88;;;12.45;;
18574;SDS011;9417;16.484;102.872;2023-03-01T08:13:10;16.08;;;13.10;;
18574;SDS011;9417;16.484;102.872;2023-03-01T08:15:17;17.52;;;14.10;;
18574;SDS011;9417;16.484;102.872;2023-03-01T08:17:24;15.20;;;12.68;;
18574;SDS011;9417;16.484;102.872;2023-03-01T08:19:32;18.45;;;12.93;;
18574;SDS011;9417;16.484;102.872;2023-03-01T08:21:40;27.60;;;13.18;;
18574;SDS011;9417;16.484;102.872;2023-03-01T08:23:46;18.58;;;12.63;;
18574;SDS011;9417;16.484;102.872;2023-03-01T08:25:53;19.52;;;13.38;;
18574;SDS011;9417;16.484;102.872;2023-03-01T08:28:00;16.83;;;13.40;;
18574;SDS011;9417;16.484;102.872;2023-03-01T08:30:08;18.45;;;14.13;;
18574;SDS011;9417;16.484;102.872;2023-03-01T08:32:15;16.25;;;12.80;;
18574;SDS011;9417;16.484;102.872;2023-03-01T08:34:23;17.83;;;13.93;;
18574;SDS011;9417;16.484;102.872;2023-03-01T08:36:32;17.45;;;13.35;;
18574;SDS011;9417;16.484;102.872;2023-03-01T08:38:42;16.33;;;13.38;;
18574;SDS011;9417;16.484;102.872;2023-03-01T08:40:49;18.42;;;13.57;;
18574;SDS011;9417;16.484;102.872;2023-03-01T08:42:56;16.73;;;13.38;;
18574;SDS011;9417;16.484;102.872;2023-03-01T08:45:04;18.15;;;13.60;;
18574;SDS011;9417;16.484;102.872;2023-03-01T08:47:12;17.85;;;13.85;;
18574;SDS011;9417;16.484;102.872;2023-03-01T08:49:19;19.20;;;13.68;;
18574;SDS011;9417;16.484;102.872;2023-03-01T08:51:27;15.27;;;13.43;;
18574;SDS011;9417;16.484;102.872;2023-03-01T08:53:37;16.15;;;13.63;;
18574;SDS011;9417;16.484;102.872;2023-03-01T08:55:44;16.75;;;12.73;;
18574;SDS011;9417;16.484;102.872;2023-03-01T08:57:52;18.83;;;14.40;;
18574;SDS011;9417;16.484;102.872;2023-03-01T08:59:59;17.08;;;13.70;;
18574;SDS011;9417;16.484;102.872;2023-03-01T09:02:10;17.63;;;13.68;;
18574;SDS011;9417;16.484;102.872;2023-03-01T09:04:19;16.98;;;13.20;;
18574;SDS011;9417;16.484;102.872;2023-03-01T09:06:26;15.77;;;13.00;;
18574;SDS011;9417;16.484;102.872;2023-03-01T09:08:38;16.10;;;13.10;;
18574;SDS011;9417;16.484;102.872;2023-03-01T09:10:46;16.48;;;12.90;;
18574;SDS011;9417;16.484;102.872;2023-03-01T09:12:53;21.02;;;14.40;;
18574;SDS011;9417;16.484;102.872;2023-03-01T09:15:00;16.65;;;13.15;;
18574;SDS011;9417;16.484;102.872;2023-03-01T09:17:07;17.92;;;13.32;;
18574;SDS011;9417;16.484;102.872;2023-03-01T09:19:14;18.08;;;12.90;;
18574;SDS011;9417;16.484;102.872;2023-03-01T09:21:23;15.35;;;12.38;;
18574;SDS011;9417;16.484;102.872;2023-03-01T09:23:44;17.35;;;11.90;;
18574;SDS011;9417;16.484;102.872;2023-03-01T09:25:52;18.63;;;13.73;;
18574;SDS011;9417;16.484;102.872;2023-03-01T09:27:59;16.63;;;12.35;;
18574;SDS011;9417;16.484;102.872;2023-03-01T09:30:07;16.85;;;12.45;;
18574;SDS011;9417;16.484;102.872;2023-03-01T09:32:15;15.68;;;13.15;;
18574;SDS011;9417;16.484;102.872;2023-03-01T09:34:22;18.48;;;12.25;;
18574;SDS011;9417;16.484;102.872;2023-03-01T09:36:29;18.95;;;12.57;;
18574;SDS011;9417;16.484;102.872;2023-03-01T09:38:36;15.43;;;12.50;;
18574;SDS011;9417;16.484;102.872;2023-03-01T09:40:45;14.93;;;11.60;;
18574;SDS011;9417;16.484;102.872;2023-03-01T09:42:54;17.98;;;12.25;;
18574;SDS011;9417;16.484;102.872;2023-03-01T09:45:06;15.73;;;12.10;;
18574;SDS011;9417;16.484;102.872;2023-03-01T09:47:21;15.43;;;11.98;;
18574;SDS011;9417;16.484;102.872;2023-03-01T09:49:32;15.65;;;12.15;;
18574;SDS011;9417;16.484;102.872;2023-03-01T09:51:41;15.68;;;12.10;;
18574;SDS011;9417;16.484;102.872;2023-03-01T09:54:00;15.40;;;12.35;;
18574;SDS011;9417;16.484;102.872;2023-03-01T09:56:12;18.25;;;13.10;;
18574;SDS011;9417;16.484;102.872;2023-03-01T09:58:31;15.48;;;12.15;;
18574;SDS011;9417;16.484;102.872;2023-03-01T10:00:52;18.17;;;12.40;;
18574;SDS011;9417;16.484;102.872;2023-03-01T10:03:01;16.08;;;12.40;;
18574;SDS011;9417;16.484;102.872;2023-03-01T10:07:44;14.93;;;12.27;;
18574;SDS011;9417;16.484;102.872;2023-03-01T10:10:04;16.13;;;12.30;;
18574;SDS011;9417;16.484;102.872;2023-03-01T10:12:15;16.90;;;13.18;;
18574;SDS011;9417;16.484;102.872;2023-03-01T10:14:27;15.80;;;12.98;;
18574;SDS011;9417;16.484;102.872;2023-03-01T10:16:40;14.73;;;12.45;;
18574;SDS011;9417;16.484;102.872;2023-03-01T10:18:53;20.17;;;12.82;;
18574;SDS011;9417;16.484;102.872;2023-03-01T10:23:15;16.75;;;12.25;;
18574;SDS011;9417;16.484;102.872;2023-03-01T10:25:34;16.42;;;11.80;;
18574;SDS011;9417;16.484;102.872;2023-03-01T10:27:53;17.98;;;12.88;;
18574;SDS011;9417;16.484;102.872;2023-03-01T10:30:05;19.60;;;13.00;;
18574;SDS011;9417;16.484;102.872;2023-03-01T10:32:19;16.02;;;12.18;;
18574;SDS011;9417;16.484;102.872;2023-03-01T10:34:27;19.63;;;12.95;;
18574;SDS011;9417;16.484;102.872;2023-03-01T10:36:36;17.58;;;12.98;;
18574;SDS011;9417;16.484;102.872;2023-03-01T10:38:49;17.55;;;12.57;;
18574;SDS011;9417;16.484;102.872;2023-03-01T10:40:58;16.33;;;12.07;;
18574;SDS011;9417;16.484;102.872;2023-03-01T10:43:12;17.98;;;13.35;;
18574;SDS011;9417;16.484;102.872;2023-03-01T10:45:27;19.20;;;13.38;;
18574;SDS011;9417;16.484;102.872;2023-03-01T10:47:38;16.38;;;13.13;;
18574;SDS011;9417;16.484;102.872;2023-03-01T10:49:55;23.42;;;13.45;;
18574;SDS011;9417;16.484;102.872;2023-03-01T10:52:11;18.27;;;13.63;;
18574;SDS011;9417;16.484;102.872;2023-03-01T10:54:25;18.33;;;13.25;;
18574;SDS011;9417;16.484;102.872;2023-03-01T10:56:45;19.77;;;13.05;;
18574;SDS011;9417;16.484;102.872;2023-03-01T10:58:59;17.38;;;13.60;;
18574;SDS011;9417;16.484;102.872;2023-03-01T11:01:23;21.05;;;13.77;;
18574;SDS011;9417;16.484;102.872;2023-03-01T11:03:32;21.00;;;15.23;;
18574;SDS011;9417;16.484;102.872;2023-03-01T11:08:01;20.55;;;14.48;;
18574;SDS011;9417;16.484;102.872;2023-03-01T11:10:11;21.63;;;14.32;;
18574;SDS011;9417;16.484;102.872;2023-03-01T11:12:22;24.75;;;15.77;;
18574;SDS011;9417;16.484;102.872;2023-03-01T11:14:32;21.95;;;15.52;;
18574;SDS011;9417;16.484;102.872;2023-03-01T11:16:44;23.67;;;15.60;;
18574;SDS011;9417;16.484;102.872;2023-03-01T11:18:56;18.90;;;14.68;;
18574;SDS011;9417;16.484;102.872;2023-03-01T11:21:04;21.45;;;14.55;;
18574;SDS011;9417;16.484;102.872;2023-03-01T11:23:14;19.52;;;14.82;;
18574;SDS011;9417;16.484;102.872;2023-03-01T11:25:24;23.48;;;16.23;;
18574;SDS011;9417;16.484;102.872;2023-03-01T11:27:33;22.90;;;15.65;;
18574;SDS011;9417;16.484;102.872;2023-03-01T11:29:46;32.42;;;17.52;;
18574;SDS011;9417;16.484;102.872;2023-03-01T11:31:57;20.98;;;15.77;;
18574;SDS011;9417;16.484;102.872;2023-03-01T11:34:09;27.00;;;17.63;;
18574;SDS011;9417;16.484;102.872;2023-03-01T11:36:22;24.58;;;16.17;;
18574;SDS011;9417;16.484;102.872;2023-03-01T11:38:35;26.95;;;17.38;;
18574;SDS011;9417;16.484;102.872;2023-03-01T11:40:44;28.02;;;15.90;;
18574;SDS011;9417;16.484;102.872;2023-03-01T11:43:02;23.90;;;15.82;;
18574;SDS011;9417;16.484;102.872;2023-03-01T11:45:19;24.75;;;16.33;;
18574;SDS011;9417;16.484;102.872;2023-03-01T11:47:33;25.20;;;15.82;;
18574;SDS011;9417;16.484;102.872;2023-03-01T11:52:34;23.33;;;16.55;;
18574;SDS011;9417;16.484;102.872;2023-03-01T11:54:57;22.45;;;16.55;;
18574;SDS011;9417;16.484;102.872;2023-03-01T11:57:27;26.30;;;16.38;;
18574;SDS011;9417;16.484;102.872;2023-03-01T12:02:16;21.02;;;15.85;;
18574;SDS011;9417;16.484;102.872;2023-03-01T12:04:49;27.58;;;16.27;;
18574;SDS011;9417;16.484;102.872;2023-03-01T12:07:10;21.95;;;15.70;;
18574;SDS011;9417;16.484;102.872;2023-03-01T12:09:30;24.80;;;15.27;;
18574;SDS011;9417;16.484;102.872;2023-03-01T12:12:16;21.60;;;15.57;;
18574;SDS011;9417;16.484;102.872;2023-03-01T12:14:39;20.45;;;14.20;;
18574;SDS011;9417;16.484;102.872;2023-03-01T12:17:01;22.38;;;15.07;;
18574;SDS011;9417;16.484;102.872;2023-03-01T12:19:20;27.58;;;15.70;;
18574;SDS011;9417;16.484;102.872;2023-03-01T12:21:42;26.98;;;15.23;;
18574;SDS011;9417;16.484;102.872;2023-03-01T12:24:08;19.08;;;14.10;;
18574;SDS011;9417;16.484;102.872;2023-03-01T12:26:31;23.17;;;14.38;;
18574;SDS011;9417;16.484;102.872;2023-03-01T12:28:44;23.02;;;14.75;;
18574;SDS011;9417;16.484;102.872;2023-03-01T12:31:29;23.98;;;14.98;;
18574;SDS011;9417;16.484;102.872;2023-03-01T12:34:08;24.98;;;14.65;;
18574;SDS011;9417;16.484;102.872;2023-03-01T12:39:00;24.95;;;16.45;;
18574;SDS011;9417;16.484;102.872;2023-03-01T12:41:20;30.83;;;17.80;;
18574;SDS011;9417;16.484;102.872;2023-03-01T12:43:52;29.27;;;18.42;;
18574;SDS011;9417;16.484;102.872;2023-03-01T12:46:12;24.38;;;17.02;;